sensor_id;sensor_type;location;lat;lon;timestamp;P1;durP1;ratioP1;P2;durP2;ratioP2
50417;SDS011;36346;48.280;14.292;2024-03-02T00:01:10;40.58;;;39.62;;
50417;SDS011;36346;48.280;14.292;2024-03-02T00:03:38;40.72;;;39.77;;
50417;SDS011;36346;48.280;14.292;2024-03-02T00:06:06;39.76;;;38.75;;
50417;SDS011;36346;48.280;14.292;2024-03-02T00:08:34;39.89;;;39.01;;
50417;SDS011;36346;48.280;14.292;2024-03-02T00:11:02;40.19;;;39.21;;
50417;SDS011;36346;48.280;14.292;2024-03-02T00:13:31;41.17;;;40.22;;
50417;SDS011;36346;48.280;14.292;2024-03-02T00:16:00;40.52;;;39.74;;
50417;SDS011;36346;48.280;14.292;2024-03-02T00:18:35;40.37;;;39.27;;
50417;SDS011;36346;48.280;14.292;2024-03-02T00:21:05;40.92;;;40.02;;
50417;SDS011;36346;48.280;14.292;2024-03-02T00:23:38;40.91;;;40.19;;
50417;SDS011;36346;48.280;14.292;2024-03-02T00:26:06;41.42;;;40.41;;
50417;SDS011;36346;48.280;14.292;2024-03-02T00:28:36;40.89;;;40.15;;
50417;SDS011;36346;48.280;14.292;2024-03-02T00:31:08;41.88;;;41.11;;
50417;SDS011;36346;48.280;14.292;2024-03-02T00:33:42;40.66;;;39.92;;
50417;SDS011;36346;48.280;14.292;2024-03-02T00:36:12;41.18;;;40.38;;
50417;SDS011;36346;48.280;14.292;2024-03-02T00:38:49;41.32;;;40.42;;
50417;SDS011;36346;48.280;14.292;2024-03-02T00:41:21;42.07;;;41.17;;
50417;SDS011;36346;48.280;14.292;2024-03-02T00:46:30;41.03;;;40.14;;
50417;SDS011;36346;48.280;14.292;2024-03-02T00:49:02;40.78;;;39.82;;
50417;SDS011;36346;48.280;14.292;2024-03-02T00:51:32;40.88;;;40.18;;
50417;SDS011;36346;48.280;14.292;2024-03-02T00:54:02;42.02;;;40.75;;
50417;SDS011;36346;48.280;14.292;2024-03-02T00:56:32;41.28;;;40.52;;
50417;SDS011;36346;48.280;14.292;2024-03-02T00:59:02;40.81;;;40.01;;
50417;SDS011;36346;48.280;14.292;2024-03-02T01:01:30;40.22;;;39.45;;
50417;SDS011;36346;48.280;14.292;2024-03-02T01:03:59;40.05;;;39.22;;
50417;SDS011;36346;48.280;14.292;2024-03-02T01:06:27;40.35;;;39.57;;
50417;SDS011;36346;48.280;14.292;2024-03-02T01:08:56;39.89;;;39.09;;
50417;SDS011;36346;48.280;14.292;2024-03-02T01:11:24;41.16;;;40.28;;
50417;SDS011;36346;48.280;14.292;2024-03-02T01:13:52;41.93;;;40.91;;
50417;SDS011;36346;48.280;14.292;2024-03-02T01:16:20;41.67;;;40.71;;
50417;SDS011;36346;48.280;14.292;2024-03-02T01:18:48;42.02;;;40.67;;
50417;SDS011;36346;48.280;14.292;2024-03-02T01:21:17;40.31;;;39.36;;
50417;SDS011;36346;48.280;14.292;2024-03-02T01:23:45;40.40;;;39.51;;
50417;SDS011;36346;48.280;14.292;2024-03-02T01:26:14;42.46;;;41.59;;
50417;SDS011;36346;48.280;14.292;2024-03-02T01:28:42;42.36;;;41.27;;
50417;SDS011;36346;48.280;14.292;2024-03-02T01:31:10;42.49;;;41.51;;
50417;SDS011;36346;48.280;14.292;2024-03-02T01:33:39;44.48;;;43.53;;
50417;SDS011;36346;48.280;14.292;2024-03-02T01:36:07;44.40;;;43.12;;
50417;SDS011;36346;48.280;14.292;2024-03-02T01:38:36;42.43;;;41.34;;
50417;SDS011;36346;48.280;14.292;2024-03-02T01:41:04;42.22;;;41.13;;
50417;SDS011;36346;48.280;14.292;2024-03-02T01:43:32;41.57;;;40.69;;
50417;SDS011;36346;48.280;14.292;2024-03-02T01:46:00;42.33;;;41.29;;
50417;SDS011;36346;48.280;14.292;2024-03-02T01:48:28;42.03;;;41.02;;
50417;SDS011;36346;48.280;14.292;2024-03-02T01:50:56;43.09;;;41.91;;
50417;SDS011;36346;48.280;14.292;2024-03-02T01:53:25;41.62;;;40.76;;
50417;SDS011;36346;48.280;14.292;2024-03-02T01:55:53;40.79;;;39.77;;
50417;SDS011;36346;48.280;14.292;2024-03-02T01:58:21;40.75;;;39.84;;
50417;SDS011;36346;48.280;14.292;2024-03-02T02:00:49;41.55;;;40.37;;
50417;SDS011;36346;48.280;14.292;2024-03-02T02:03:18;39.67;;;39.00;;
50417;SDS011;36346;48.280;14.292;2024-03-02T02:05:46;39.18;;;38.52;;
50417;SDS011;36346;48.280;14.292;2024-03-02T02:08:15;39.16;;;38.40;;
50417;SDS011;36346;48.280;14.292;2024-03-02T02:10:43;39.33;;;38.44;;
50417;SDS011;36346;48.280;14.292;2024-03-02T02:13:11;38.02;;;37.43;;
50417;SDS011;36346;48.280;14.292;2024-03-02T02:15:39;38.61;;;37.63;;
50417;SDS011;36346;48.280;14.292;2024-03-02T02:18:08;38.97;;;37.94;;
50417;SDS011;36346;48.280;14.292;2024-03-02T02:20:35;37.70;;;36.98;;
50417;SDS011;36346;48.280;14.292;2024-03-02T02:23:04;38.80;;;37.88;;
50417;SDS011;36346;48.280;14.292;2024-03-02T02:25:33;37.78;;;36.87;;
50417;SDS011;36346;48.280;14.292;2024-03-02T02:28:01;37.10;;;36.54;;
50417;SDS011;36346;48.280;14.292;2024-03-02T02:30:30;38.23;;;37.53;;
50417;SDS011;36346;48.280;14.292;2024-03-02T02:33:00;38.59;;;37.83;;
50417;SDS011;36346;48.280;14.292;2024-03-02T02:35:28;40.03;;;39.21;;
50417;SDS011;36346;48.280;14.292;2024-03-02T02:37:57;39.94;;;39.26;;
50417;SDS011;36346;48.280;14.292;2024-03-02T02:40:26;40.54;;;39.30;;
50417;SDS011;36346;48.280;14.292;2024-03-02T02:42:59;40.74;;;39.32;;
50417;SDS011;36346;48.280;14.292;2024-03-02T02:45:27;39.91;;;39.10;;
50417;SDS011;36346;48.280;14.292;2024-03-02T02:47:55;40.21;;;39.31;;
50417;SDS011;36346;48.280;14.292;2024-03-02T02:50:23;41.65;;;40.74;;
50417;SDS011;36346;48.280;14.292;2024-03-02T02:52:51;40.50;;;39.68;;
50417;SDS011;36346;48.280;14.292;2024-03-02T02:55:20;41.02;;;40.09;;
50417;SDS011;36346;48.280;14.292;2024-03-02T02:57:47;42.30;;;41.47;;
50417;SDS011;36346;48.280;14.292;2024-03-02T03:00:15;40.84;;;39.88;;
50417;SDS011;36346;48.280;14.292;2024-03-02T03:02:47;40.92;;;40.07;;
50417;SDS011;36346;48.280;14.292;2024-03-02T03:05:18;41.42;;;40.50;;
50417;SDS011;36346;48.280;14.292;2024-03-02T03:07:46;42.08;;;41.05;;
50417;SDS011;36346;48.280;14.292;2024-03-02T03:10:18;43.03;;;42.12;;
50417;SDS011;36346;48.280;14.292;2024-03-02T03:12:46;41.25;;;40.38;;
50417;SDS011;36346;48.280;14.292;2024-03-02T03:15:14;41.06;;;40.11;;
50417;SDS011;36346;48.280;14.292;2024-03-02T03:17:44;40.71;;;40.08;;
50417;SDS011;36346;48.280;14.292;2024-03-02T03:20:13;41.84;;;41.01;;
50417;SDS011;36346;48.280;14.292;2024-03-02T03:22:43;41.65;;;40.94;;
50417;SDS011;36346;48.280;14.292;2024-03-02T03:25:11;41.46;;;40.39;;
50417;SDS011;36346;48.280;14.292;2024-03-02T03:27:40;41.54;;;40.53;;
50417;SDS011;36346;48.280;14.292;2024-03-02T03:30:09;42.60;;;41.70;;
50417;SDS011;36346;48.280;14.292;2024-03-02T03:32:38;41.44;;;40.41;;
50417;SDS011;36346;48.280;14.292;2024-03-02T03:35:07;42.59;;;41.58;;
50417;SDS011;36346;48.280;14.292;2024-03-02T03:37:35;41.52;;;40.64;;
50417;SDS011;36346;48.280;14.292;2024-03-02T03:40:03;40.54;;;39.66;;
50417;SDS011;36346;48.280;14.292;2024-03-02T03:42:39;41.63;;;40.49;;
50417;SDS011;36346;48.280;14.292;2024-03-02T03:45:07;42.21;;;40.82;;
50417;SDS011;36346;48.280;14.292;2024-03-02T03:47:35;42.59;;;41.37;;
50417;SDS011;36346;48.280;14.292;2024-03-02T03:50:04;41.10;;;40.02;;
50417;SDS011;36346;48.280;14.292;2024-03-02T03:52:35;41.49;;;40.58;;
50417;SDS011;36346;48.280;14.292;2024-03-02T03:55:03;41.08;;;40.28;;
50417;SDS011;36346;48.280;14.292;2024-03-02T03:57:33;42.74;;;41.75;;
50417;SDS011;36346;48.280;14.292;2024-03-02T04:00:01;44.15;;;42.68;;
50417;SDS011;36346;48.280;14.292;2024-03-02T04:02:38;43.08;;;41.73;;
50417;SDS011;36346;48.280;14.292;2024-03-02T04:05:06;42.17;;;40.94;;
50417;SDS011;36346;48.280;14.292;2024-03-02T04:07:38;41.15;;;40.40;;
50417;SDS011;36346;48.280;14.292;2024-03-02T04:10:09;43.82;;;42.45;;
50417;SDS011;36346;48.280;14.292;2024-03-02T04:12:38;43.82;;;42.62;;
50417;SDS011;36346;48.280;14.292;2024-03-02T04:15:06;42.47;;;41.27;;
50417;SDS011;36346;48.280;14.292;2024-03-02T04:17:35;42.03;;;40.92;;
50417;SDS011;36346;48.280;14.292;2024-03-02T04:20:04;42.39;;;41.43;;
50417;SDS011;36346;48.280;14.292;2024-03-02T04:22:33;41.99;;;41.11;;
50417;SDS011;36346;48.280;14.292;2024-03-02T04:25:02;42.67;;;41.73;;
50417;SDS011;36346;48.280;14.292;2024-03-02T04:27:32;42.35;;;41.30;;
50417;SDS011;36346;48.280;14.292;2024-03-02T04:30:01;44.98;;;43.81;;
50417;SDS011;36346;48.280;14.292;2024-03-02T04:32:29;44.40;;;43.15;;
50417;SDS011;36346;48.280;14.292;2024-03-02T04:34:57;44.88;;;43.43;;
50417;SDS011;36346;48.280;14.292;2024-03-02T04:37:25;44.25;;;42.91;;
50417;SDS011;36346;48.280;14.292;2024-03-02T04:39:54;43.90;;;42.69;;
50417;SDS011;36346;48.280;14.292;2024-03-02T04:42:22;43.91;;;42.53;;
50417;SDS011;36346;48.280;14.292;2024-03-02T04:44:50;44.00;;;42.57;;
50417;SDS011;36346;48.280;14.292;2024-03-02T04:47:18;45.21;;;43.77;;
50417;SDS011;36346;48.280;14.292;2024-03-02T04:49:46;44.37;;;42.81;;
50417;SDS011;36346;48.280;14.292;2024-03-02T04:52:14;45.05;;;43.91;;
50417;SDS011;36346;48.280;14.292;2024-03-02T04:54:43;44.19;;;42.86;;
50417;SDS011;36346;48.280;14.292;2024-03-02T04:57:29;43.93;;;42.84;;
50417;SDS011;36346;48.280;14.292;2024-03-02T04:59:57;43.10;;;42.23;;
50417;SDS011;36346;48.280;14.292;2024-03-02T05:02:26;43.99;;;42.78;;
50417;SDS011;36346;48.280;14.292;2024-03-02T05:04:54;46.13;;;44.49;;
50417;SDS011;36346;48.280;14.292;2024-03-02T05:07:22;46.19;;;44.84;;
50417;SDS011;36346;48.280;14.292;2024-03-02T05:09:50;45.45;;;44.13;;
50417;SDS011;36346;48.280;14.292;2024-03-02T05:12:18;45.82;;;44.60;;
50417;SDS011;36346;48.280;14.292;2024-03-02T05:14:46;46.19;;;44.73;;
50417;SDS011;36346;48.280;14.292;2024-03-02T05:17:14;46.21;;;44.95;;
50417;SDS011;36346;48.280;14.292;2024-03-02T05:19:43;45.69;;;44.42;;
50417;SDS011;36346;48.280;14.292;2024-03-02T05:22:11;46.01;;;44.58;;
50417;SDS011;36346;48.280;14.292;2024-03-02T05:24:39;46.22;;;44.66;;
50417;SDS011;36346;48.280;14.292;2024-03-02T05:27:07;46.37;;;44.67;;
50417;SDS011;36346;48.280;14.292;2024-03-02T05:29:35;46.42;;;44.89;;
50417;SDS011;36346;48.280;14.292;2024-03-02T05:32:03;45.90;;;44.07;;
50417;SDS011;36346;48.280;14.292;2024-03-02T05:34:31;44.77;;;43.60;;
50417;SDS011;36346;48.280;14.292;2024-03-02T05:37:00;45.42;;;44.27;;
50417;SDS011;36346;48.280;14.292;2024-03-02T05:39:29;46.25;;;44.75;;
50417;SDS011;36346;48.280;14.292;2024-03-02T05:41:57;46.35;;;45.01;;
50417;SDS011;36346;48.280;14.292;2024-03-02T05:44:25;44.80;;;43.64;;
50417;SDS011;36346;48.280;14.292;2024-03-02T05:46:53;46.24;;;44.79;;
50417;SDS011;36346;48.280;14.292;2024-03-02T05:49:21;47.27;;;45.45;;
50417;SDS011;36346;48.280;14.292;2024-03-02T05:51:49;46.11;;;44.47;;
50417;SDS011;36346;48.280;14.292;2024-03-02T05:54:18;46.99;;;45.13;;
50417;SDS011;36346;48.280;14.292;2024-03-02T05:56:46;45.64;;;44.34;;
50417;SDS011;36346;48.280;14.292;2024-03-02T05:59:14;45.12;;;44.20;;
50417;SDS011;36346;48.280;14.292;2024-03-02T06:01:44;44.88;;;43.62;;
50417;SDS011;36346;48.280;14.292;2024-03-02T06:04:22;44.33;;;43.12;;
50417;SDS011;36346;48.280;14.292;2024-03-02T06:06:51;44.14;;;42.94;;
50417;SDS011;36346;48.280;14.292;2024-03-02T06:09:19;44.26;;;43.00;;
50417;SDS011;36346;48.280;14.292;2024-03-02T06:11:48;44.26;;;43.12;;
50417;SDS011;36346;48.280;14.292;2024-03-02T06:14:16;45.85;;;44.12;;
50417;SDS011;36346;48.280;14.292;2024-03-02T06:16:44;45.09;;;43.64;;
50417;SDS011;36346;48.280;14.292;2024-03-02T06:19:12;45.38;;;43.94;;
50417;SDS011;36346;48.280;14.292;2024-03-02T06:21:40;44.80;;;43.63;;
50417;SDS011;36346;48.280;14.292;2024-03-02T06:24:08;44.69;;;44.02;;
50417;SDS011;36346;48.280;14.292;2024-03-02T06:26:36;45.58;;;44.55;;
50417;SDS011;36346;48.280;14.292;2024-03-02T06:29:04;44.06;;;42.97;;
50417;SDS011;36346;48.280;14.292;2024-03-02T06:31:34;44.51;;;43.22;;
50417;SDS011;36346;48.280;14.292;2024-03-02T06:34:02;43.67;;;42.36;;
50417;SDS011;36346;48.280;14.292;2024-03-02T06:36:32;43.77;;;42.61;;
50417;SDS011;36346;48.280;14.292;2024-03-02T06:39:00;45.94;;;44.60;;
50417;SDS011;36346;48.280;14.292;2024-03-02T06:41:28;44.59;;;43.39;;
50417;SDS011;36346;48.280;14.292;2024-03-02T06:43:56;45.45;;;44.29;;
50417;SDS011;36346;48.280;14.292;2024-03-02T06:46:27;44.94;;;43.56;;
50417;SDS011;36346;48.280;14.292;2024-03-02T06:48:55;47.22;;;45.92;;
50417;SDS011;36346;48.280;14.292;2024-03-02T06:51:23;47.01;;;45.40;;
50417;SDS011;36346;48.280;14.292;2024-03-02T06:53:51;46.41;;;44.86;;
50417;SDS011;36346;48.280;14.292;2024-03-02T06:56:19;46.90;;;45.28;;
50417;SDS011;36346;48.280;14.292;2024-03-02T06:58:47;46.95;;;45.35;;
50417;SDS011;36346;48.280;14.292;2024-03-02T07:01:15;47.62;;;46.43;;
50417;SDS011;36346;48.280;14.292;2024-03-02T07:03:43;47.56;;;46.26;;
50417;SDS011;36346;48.280;14.292;2024-03-02T07:06:11;47.95;;;46.43;;
50417;SDS011;36346;48.280;14.292;2024-03-02T07:08:39;48.23;;;46.81;;
50417;SDS011;36346;48.280;14.292;2024-03-02T07:11:07;48.14;;;46.73;;
50417;SDS011;36346;48.280;14.292;2024-03-02T07:13:35;47.06;;;46.11;;
50417;SDS011;36346;48.280;14.292;2024-03-02T07:16:04;46.98;;;45.86;;
50417;SDS011;36346;48.280;14.292;2024-03-02T07:18:32;48.19;;;46.74;;
50417;SDS011;36346;48.280;14.292;2024-03-02T07:21:09;47.44;;;46.10;;
50417;SDS011;36346;48.280;14.292;2024-03-02T07:23:37;47.75;;;46.50;;
50417;SDS011;36346;48.280;14.292;2024-03-02T07:26:05;46.74;;;45.56;;
50417;SDS011;36346;48.280;14.292;2024-03-02T07:28:36;47.00;;;45.53;;
50417;SDS011;36346;48.280;14.292;2024-03-02T07:31:05;47.24;;;46.06;;
50417;SDS011;36346;48.280;14.292;2024-03-02T07:33:34;47.59;;;46.29;;
50417;SDS011;36346;48.280;14.292;2024-03-02T07:36:02;49.03;;;47.30;;
50417;SDS011;36346;48.280;14.292;2024-03-02T07:38:31;48.49;;;46.83;;
50417;SDS011;36346;48.280;14.292;2024-03-02T07:41:02;47.53;;;46.10;;
50417;SDS011;36346;48.280;14.292;2024-03-02T07:43:32;47.31;;;46.20;;
50417;SDS011;36346;48.280;14.292;2024-03-02T07:46:01;46.48;;;45.32;;
50417;SDS011;36346;48.280;14.292;2024-03-02T07:48:30;46.94;;;45.96;;
50417;SDS011;36346;48.280;14.292;2024-03-02T07:50:59;47.48;;;46.23;;
50417;SDS011;36346;48.280;14.292;2024-03-02T07:53:27;48.38;;;47.03;;
50417;SDS011;36346;48.280;14.292;2024-03-02T07:55:56;46.61;;;45.13;;
50417;SDS011;36346;48.280;14.292;2024-03-02T07:58:29;48.10;;;46.81;;
50417;SDS011;36346;48.280;14.292;2024-03-02T08:00:58;47.48;;;46.11;;
50417;SDS011;36346;48.280;14.292;2024-03-02T08:03:29;47.20;;;46.07;;
50417;SDS011;36346;48.280;14.292;2024-03-02T08:05:57;46.31;;;45.29;;
50417;SDS011;36346;48.280;14.292;2024-03-02T08:08:25;45.11;;;44.14;;
50417;SDS011;36346;48.280;14.292;2024-03-02T08:10:53;46.05;;;44.87;;
50417;SDS011;36346;48.280;14.292;2024-03-02T08:13:21;46.60;;;45.40;;
50417;SDS011;36346;48.280;14.292;2024-03-02T08:15:49;45.42;;;44.47;;
50417;SDS011;36346;48.280;14.292;2024-03-02T08:18:17;46.49;;;45.39;;
50417;SDS011;36346;48.280;14.292;2024-03-02T08:20:46;46.68;;;45.45;;
50417;SDS011;36346;48.280;14.292;2024-03-02T08:23:14;46.63;;;45.27;;
50417;SDS011;36346;48.280;14.292;2024-03-02T08:25:42;46.84;;;45.63;;
50417;SDS011;36346;48.280;14.292;2024-03-02T08:28:10;45.81;;;44.58;;
50417;SDS011;36346;48.280;14.292;2024-03-02T08:30:39;46.12;;;45.06;;
50417;SDS011;36346;48.280;14.292;2024-03-02T08:33:07;46.41;;;45.52;;
50417;SDS011;36346;48.280;14.292;2024-03-02T08:35:35;45.43;;;44.34;;
50417;SDS011;36346;48.280;14.292;2024-03-02T08:38:04;46.05;;;45.02;;
50417;SDS011;36346;48.280;14.292;2024-03-02T08:40:33;45.89;;;44.91;;
50417;SDS011;36346;48.280;14.292;2024-03-02T08:43:01;46.75;;;45.83;;
50417;SDS011;36346;48.280;14.292;2024-03-02T08:45:29;47.21;;;46.12;;
50417;SDS011;36346;48.280;14.292;2024-03-02T08:47:58;46.63;;;45.47;;
50417;SDS011;36346;48.280;14.292;2024-03-02T08:50:26;45.95;;;44.72;;
50417;SDS011;36346;48.280;14.292;2024-03-02T08:52:54;45.58;;;44.46;;
50417;SDS011;36346;48.280;14.292;2024-03-02T08:55:22;45.95;;;44.57;;
50417;SDS011;36346;48.280;14.292;2024-03-02T08:57:50;45.91;;;44.73;;
50417;SDS011;36346;48.280;14.292;2024-03-02T09:00:18;46.41;;;45.35;;
50417;SDS011;36346;48.280;14.292;2024-03-02T09:02:47;46.18;;;45.00;;
50417;SDS011;36346;48.280;14.292;2024-03-02T09:05:15;45.37;;;43.91;;
50417;SDS011;36346;48.280;14.292;2024-03-02T09:07:43;45.15;;;43.91;;
50417;SDS011;36346;48.280;14.292;2024-03-02T09:10:11;44.04;;;43.03;;
50417;SDS011;36346;48.280;14.292;2024-03-02T09:12:39;45.32;;;44.11;;
50417;SDS011;36346;48.280;14.292;2024-03-02T09:15:07;44.11;;;43.19;;
50417;SDS011;36346;48.280;14.292;2024-03-02T09:17:35;44.40;;;43.43;;
50417;SDS011;36346;48.280;14.292;2024-03-02T09:20:04;42.27;;;41.40;;
50417;SDS011;36346;48.280;14.292;2024-03-02T09:22:33;44.05;;;42.97;;
50417;SDS011;36346;48.280;14.292;2024-03-02T09:25:01;44.45;;;43.42;;
50417;SDS011;36346;48.280;14.292;2024-03-02T09:27:29;45.01;;;43.74;;
50417;SDS011;36346;48.280;14.292;2024-03-02T09:29:57;44.58;;;43.51;;
50417;SDS011;36346;48.280;14.292;2024-03-02T09:32:25;42.81;;;42.00;;
50417;SDS011;36346;48.280;14.292;2024-03-02T09:34:53;43.94;;;43.06;;
50417;SDS011;36346;48.280;14.292;2024-03-02T09:37:23;44.88;;;43.47;;
50417;SDS011;36346;48.280;14.292;2024-03-02T09:39:51;42.89;;;41.88;;
50417;SDS011;36346;48.280;14.292;2024-03-02T09:42:20;43.59;;;42.43;;
50417;SDS011;36346;48.280;14.292;2024-03-02T09:44:51;42.26;;;41.30;;
50417;SDS011;36346;48.280;14.292;2024-03-02T09:47:19;42.59;;;41.78;;
50417;SDS011;36346;48.280;14.292;2024-03-02T09:49:48;43.02;;;42.09;;
50417;SDS011;36346;48.280;14.292;2024-03-02T09:52:16;41.53;;;40.69;;
50417;SDS011;36346;48.280;14.292;2024-03-02T09:54:44;42.72;;;41.71;;
50417;SDS011;36346;48.280;14.292;2024-03-02T09:57:15;42.34;;;41.18;;
50417;SDS011;36346;48.280;14.292;2024-03-02T09:59:43;41.38;;;40.58;;
50417;SDS011;36346;48.280;14.292;2024-03-02T10:02:13;40.89;;;39.97;;
50417;SDS011;36346;48.280;14.292;2024-03-02T10:04:40;40.00;;;39.35;;
50417;SDS011;36346;48.280;14.292;2024-03-02T10:07:12;40.22;;;39.56;;
50417;SDS011;36346;48.280;14.292;2024-03-02T10:09:42;41.20;;;40.18;;
50417;SDS011;36346;48.280;14.292;2024-03-02T10:12:16;39.97;;;39.16;;
50417;SDS011;36346;48.280;14.292;2024-03-02T10:14:44;40.93;;;40.05;;
50417;SDS011;36346;48.280;14.292;2024-03-02T10:17:13;41.39;;;40.47;;
50417;SDS011;36346;48.280;14.292;2024-03-02T10:19:43;40.63;;;39.63;;
50417;SDS011;36346;48.280;14.292;2024-03-02T10:22:11;40.47;;;39.61;;
50417;SDS011;36346;48.280;14.292;2024-03-02T10:24:40;40.00;;;39.25;;
50417;SDS011;36346;48.280;14.292;2024-03-02T10:29:46;39.60;;;38.75;;
50417;SDS011;36346;48.280;14.292;2024-03-02T10:32:15;39.75;;;39.11;;
50417;SDS011;36346;48.280;14.292;2024-03-02T10:34:46;39.04;;;38.40;;
50417;SDS011;36346;48.280;14.292;2024-03-02T10:37:17;39.37;;;38.63;;
50417;SDS011;36346;48.280;14.292;2024-03-02T10:39:46;38.35;;;37.83;;
50417;SDS011;36346;48.280;14.292;2024-03-02T10:42:15;37.64;;;37.15;;
50417;SDS011;36346;48.280;14.292;2024-03-02T10:44:43;37.58;;;37.05;;
50417;SDS011;36346;48.280;14.292;2024-03-02T10:47:12;36.36;;;35.74;;
50417;SDS011;36346;48.280;14.292;2024-03-02T10:49:42;37.90;;;37.17;;
50417;SDS011;36346;48.280;14.292;2024-03-02T10:52:11;37.59;;;36.83;;
50417;SDS011;36346;48.280;14.292;2024-03-02T10:54:41;38.81;;;37.99;;
50417;SDS011;36346;48.280;14.292;2024-03-02T10:57:10;38.40;;;37.51;;
50417;SDS011;36346;48.280;14.292;2024-03-02T11:00:01;38.27;;;37.62;;
50417;SDS011;36346;48.280;14.292;2024-03-02T11:02:30;39.76;;;38.81;;
50417;SDS011;36346;48.280;14.292;2024-03-02T11:04:59;37.70;;;37.11;;
50417;SDS011;36346;48.280;14.292;2024-03-02T11:07:38;38.46;;;37.69;;
50417;SDS011;36346;48.280;14.292;2024-03-02T11:10:07;39.53;;;38.68;;
50417;SDS011;36346;48.280;14.292;2024-03-02T11:12:48;39.58;;;38.72;;
50417;SDS011;36346;48.280;14.292;2024-03-02T11:15:24;38.96;;;37.80;;
50417;SDS011;36346;48.280;14.292;2024-03-02T11:17:54;39.15;;;38.18;;
50417;SDS011;36346;48.280;14.292;2024-03-02T11:20:23;39.20;;;38.50;;
50417;SDS011;36346;48.280;14.292;2024-03-02T11:22:52;38.53;;;37.65;;
50417;SDS011;36346;48.280;14.292;2024-03-02T11:25:27;37.92;;;37.46;;
50417;SDS011;36346;48.280;14.292;2024-03-02T11:33:03;38.65;;;37.79;;
50417;SDS011;36346;48.280;14.292;2024-03-02T11:35:36;37.21;;;36.60;;
50417;SDS011;36346;48.280;14.292;2024-03-02T11:38:06;36.05;;;35.51;;
50417;SDS011;36346;48.280;14.292;2024-03-02T11:40:35;33.88;;;33.37;;
50417;SDS011;36346;48.280;14.292;2024-03-02T11:43:04;33.44;;;33.04;;
50417;SDS011;36346;48.280;14.292;2024-03-02T11:45:35;33.85;;;33.28;;
50417;SDS011;36346;48.280;14.292;2024-03-02T11:48:10;33.13;;;32.48;;
50417;SDS011;36346;48.280;14.292;2024-03-02T11:50:42;32.84;;;32.43;;
50417;SDS011;36346;48.280;14.292;2024-03-02T11:53:15;32.98;;;32.49;;
50417;SDS011;36346;48.280;14.292;2024-03-02T11:55:43;32.34;;;31.87;;
50417;SDS011;36346;48.280;14.292;2024-03-02T11:58:15;32.94;;;32.42;;
50417;SDS011;36346;48.280;14.292;2024-03-02T12:00:54;33.01;;;32.28;;
50417;SDS011;36346;48.280;14.292;2024-03-02T12:03:24;31.77;;;31.25;;
50417;SDS011;36346;48.280;14.292;2024-03-02T12:05:54;34.91;;;34.35;;
50417;SDS011;36346;48.280;14.292;2024-03-02T12:08:22;34.80;;;34.13;;
50417;SDS011;36346;48.280;14.292;2024-03-02T12:11:01;35.98;;;35.22;;
50417;SDS011;36346;48.280;14.292;2024-03-02T12:13:31;37.00;;;36.24;;
50417;SDS011;36346;48.280;14.292;2024-03-02T12:16:00;41.34;;;40.29;;
50417;SDS011;36346;48.280;14.292;2024-03-02T12:18:28;47.03;;;45.74;;
50417;SDS011;36346;48.280;14.292;2024-03-02T12:20:56;48.99;;;47.38;;
50417;SDS011;36346;48.280;14.292;2024-03-02T12:23:26;47.69;;;45.97;;
50417;SDS011;36346;48.280;14.292;2024-03-02T12:25:54;46.27;;;44.90;;
50417;SDS011;36346;48.280;14.292;2024-03-02T12:28:23;50.38;;;48.58;;
50417;SDS011;36346;48.280;14.292;2024-03-02T12:30:51;45.86;;;44.49;;
50417;SDS011;36346;48.280;14.292;2024-03-02T12:33:20;40.07;;;38.92;;
50417;SDS011;36346;48.280;14.292;2024-03-02T12:35:49;36.60;;;35.84;;
50417;SDS011;36346;48.280;14.292;2024-03-02T12:38:17;33.37;;;32.68;;
50417;SDS011;36346;48.280;14.292;2024-03-02T12:40:47;31.38;;;30.59;;
50417;SDS011;36346;48.280;14.292;2024-03-02T12:43:16;30.18;;;29.72;;
50417;SDS011;36346;48.280;14.292;2024-03-02T12:45:44;28.87;;;28.47;;
50417;SDS011;36346;48.280;14.292;2024-03-02T12:48:12;27.72;;;27.40;;
50417;SDS011;36346;48.280;14.292;2024-03-02T12:50:41;27.01;;;26.61;;
50417;SDS011;36346;48.280;14.292;2024-03-02T12:53:13;27.57;;;27.22;;
50417;SDS011;36346;48.280;14.292;2024-03-02T12:55:43;26.73;;;26.42;;
50417;SDS011;36346;48.280;14.292;2024-03-02T12:58:21;28.03;;;27.62;;
50417;SDS011;36346;48.280;14.292;2024-03-02T13:00:50;29.16;;;28.81;;
50417;SDS011;36346;48.280;14.292;2024-03-02T13:03:39;27.22;;;26.90;;
50417;SDS011;36346;48.280;14.292;2024-03-02T13:06:07;24.98;;;24.64;;
50417;SDS011;36346;48.280;14.292;2024-03-02T13:08:36;24.66;;;24.44;;
50417;SDS011;36346;48.280;14.292;2024-03-02T13:11:05;24.99;;;24.73;;
50417;SDS011;36346;48.280;14.292;2024-03-02T13:13:34;24.71;;;24.36;;
50417;SDS011;36346;48.280;14.292;2024-03-02T13:16:03;25.69;;;25.41;;
50417;SDS011;36346;48.280;14.292;2024-03-02T13:18:35;24.58;;;24.38;;
50417;SDS011;36346;48.280;14.292;2024-03-02T13:21:04;23.14;;;22.84;;
50417;SDS011;36346;48.280;14.292;2024-03-02T13:23:32;22.89;;;22.62;;
50417;SDS011;36346;48.280;14.292;2024-03-02T13:26:00;23.56;;;23.27;;
50417;SDS011;36346;48.280;14.292;2024-03-02T13:28:29;23.89;;;23.71;;
50417;SDS011;36346;48.280;14.292;2024-03-02T13:30:57;23.24;;;22.93;;
50417;SDS011;36346;48.280;14.292;2024-03-02T13:33:25;24.16;;;24.07;;
50417;SDS011;36346;48.280;14.292;2024-03-02T13:35:54;22.48;;;22.38;;
50417;SDS011;36346;48.280;14.292;2024-03-02T13:38:22;21.19;;;20.94;;
50417;SDS011;36346;48.280;14.292;2024-03-02T13:40:50;21.17;;;20.85;;
50417;SDS011;36346;48.280;14.292;2024-03-02T13:43:18;21.47;;;21.28;;
50417;SDS011;36346;48.280;14.292;2024-03-02T13:45:47;20.88;;;20.60;;
50417;SDS011;36346;48.280;14.292;2024-03-02T13:48:15;20.64;;;20.39;;
50417;SDS011;36346;48.280;14.292;2024-03-02T13:50:43;19.76;;;19.75;;
50417;SDS011;36346;48.280;14.292;2024-03-02T13:53:12;19.61;;;19.52;;
50417;SDS011;36346;48.280;14.292;2024-03-02T13:55:40;19.02;;;18.95;;
50417;SDS011;36346;48.280;14.292;2024-03-02T13:58:10;18.83;;;18.67;;
50417;SDS011;36346;48.280;14.292;2024-03-02T14:00:38;18.60;;;18.53;;
50417;SDS011;36346;48.280;14.292;2024-03-02T14:03:07;19.24;;;19.15;;
50417;SDS011;36346;48.280;14.292;2024-03-02T14:05:35;18.75;;;18.72;;
50417;SDS011;36346;48.280;14.292;2024-03-02T14:08:04;18.87;;;18.81;;
50417;SDS011;36346;48.280;14.292;2024-03-02T14:10:33;19.44;;;19.39;;
50417;SDS011;36346;48.280;14.292;2024-03-02T14:13:01;21.08;;;21.08;;
50417;SDS011;36346;48.280;14.292;2024-03-02T14:15:29;20.97;;;20.97;;
50417;SDS011;36346;48.280;14.292;2024-03-02T14:17:58;20.59;;;20.46;;
50417;SDS011;36346;48.280;14.292;2024-03-02T14:20:26;20.60;;;20.57;;
50417;SDS011;36346;48.280;14.292;2024-03-02T14:22:54;19.41;;;19.35;;
50417;SDS011;36346;48.280;14.292;2024-03-02T14:25:22;20.46;;;20.35;;
50417;SDS011;36346;48.280;14.292;2024-03-02T14:27:50;20.98;;;20.87;;
50417;SDS011;36346;48.280;14.292;2024-03-02T14:30:24;21.53;;;21.34;;